sensor_id;sensor_type;location;lat;lon;timestamp;temperature;humidity
61201;DHT22;47065;52.898;6.992;2023-12-14T00:02:00;4.90;99.90
61201;DHT22;47065;52.898;6.992;2023-12-14T00:04:25;4.90;99.90
61201;DHT22;47065;52.898;6.992;2023-12-14T00:06:51;4.90;99.90
61201;DHT22;47065;52.898;6.992;2023-12-14T00:09:17;4.90;99.90
61201;DHT22;47065;52.898;6.992;2023-12-14T00:11:42;4.90;99.90
61201;DHT22;47065;52.898;6.992;2023-12-14T00:14:08;4.90;99.90
61201;DHT22;47065;52.898;6.992;2023-12-14T00:16:34;4.90;99.90
61201;DHT22;47065;52.898;6.992;2023-12-14T00:18:59;4.90;99.90
61201;DHT22;47065;52.898;6.992;2023-12-14T00:21:25;4.90;99.90
61201;DHT22;47065;52.898;6.992;2023-12-14T00:23:50;4.90;99.90
61201;DHT22;47065;52.898;6.992;2023-12-14T00:26:16;4.90;99.90
61201;DHT22;47065;52.898;6.992;2023-12-14T00:28:43;4.90;99.90
61201;DHT22;47065;52.898;6.992;2023-12-14T00:31:08;4.80;99.90
61201;DHT22;47065;52.898;6.992;2023-12-14T00:33:34;4.90;99.90
61201;DHT22;47065;52.898;6.992;2023-12-14T00:36:00;4.80;99.90
61201;DHT22;47065;52.898;6.992;2023-12-14T00:38:25;4.80;99.90
61201;DHT22;47065;52.898;6.992;2023-12-14T00:40:51;4.80;99.90
61201;DHT22;47065;52.898;6.992;2023-12-14T00:43:17;4.80;99.90
61201;DHT22;47065;52.898;6.992;2023-12-14T00:45:42;4.80;99.90
61201;DHT22;47065;52.898;6.992;2023-12-14T00:48:08;4.80;99.90
61201;DHT22;47065;52.898;6.992;2023-12-14T00:50:33;4.80;99.90
61201;DHT22;47065;52.898;6.992;2023-12-14T00:52:59;4.80;99.90
61201;DHT22;47065;52.898;6.992;2023-12-14T00:55:25;4.80;99.90
61201;DHT22;47065;52.898;6.992;2023-12-14T00:57:50;4.80;99.90
61201;DHT22;47065;52.898;6.992;2023-12-14T01:00:16;4.80;99.90
61201;DHT22;47065;52.898;6.992;2023-12-14T01:02:42;4.80;99.90
61201;DHT22;47065;52.898;6.992;2023-12-14T01:05:08;4.80;99.90
61201;DHT22;47065;52.898;6.992;2023-12-14T01:07:33;4.80;99.90
61201;DHT22;47065;52.898;6.992;2023-12-14T01:09:59;4.70;99.90
61201;DHT22;47065;52.898;6.992;2023-12-14T01:12:25;4.80;99.90
61201;DHT22;47065;52.898;6.992;2023-12-14T01:14:51;4.80;99.90
61201;DHT22;47065;52.898;6.992;2023-12-14T01:17:16;4.70;99.90
61201;DHT22;47065;52.898;6.992;2023-12-14T01:19:42;4.70;99.90
61201;DHT22;47065;52.898;6.992;2023-12-14T01:22:08;4.70;99.90
61201;DHT22;47065;52.898;6.992;2023-12-14T01:24:33;4.70;99.90
61201;DHT22;47065;52.898;6.992;2023-12-14T01:26:59;4.70;99.90
61201;DHT22;47065;52.898;6.992;2023-12-14T01:29:24;4.70;99.90
61201;DHT22;47065;52.898;6.992;2023-12-14T01:31:50;4.70;99.90
61201;DHT22;47065;52.898;6.992;2023-12-14T01:34:16;4.70;99.90
61201;DHT22;47065;52.898;6.992;2023-12-14T01:36:41;4.60;99.90
61201;DHT22;47065;52.898;6.992;2023-12-14T01:39:07;4.60;99.90
61201;DHT22;47065;52.898;6.992;2023-12-14T01:41:33;4.60;99.90
61201;DHT22;47065;52.898;6.992;2023-12-14T01:43:59;4.60;99.90
61201;DHT22;47065;52.898;6.992;2023-12-14T01:46:25;4.60;99.90
61201;DHT22;47065;52.898;6.992;2023-12-14T01:48:50;4.50;99.90
61201;DHT22;47065;52.898;6.992;2023-12-14T01:51:18;4.60;99.90
61201;DHT22;47065;52.898;6.992;2023-12-14T01:53:44;4.60;99.90
61201;DHT22;47065;52.898;6.992;2023-12-14T01:56:10;4.50;99.90
61201;DHT22;47065;52.898;6.992;2023-12-14T01:58:36;4.60;99.90
61201;DHT22;47065;52.898;6.992;2023-12-14T02:01:28;4.50;99.90
61201;DHT22;47065;52.898;6.992;2023-12-14T02:03:56;4.50;99.90
61201;DHT22;47065;52.898;6.992;2023-12-14T02:06:21;4.50;99.90
61201;DHT22;47065;52.898;6.992;2023-12-14T02:08:47;4.50;99.90
61201;DHT22;47065;52.898;6.992;2023-12-14T02:11:13;4.50;99.90
61201;DHT22;47065;52.898;6.992;2023-12-14T02:13:39;4.50;99.90
61201;DHT22;47065;52.898;6.992;2023-12-14T02:16:05;4.50;99.90
61201;DHT22;47065;52.898;6.992;2023-12-14T02:18:30;4.50;99.90
61201;DHT22;47065;52.898;6.992;2023-12-14T02:20:56;4.50;99.90
61201;DHT22;47065;52.898;6.992;2023-12-14T02:23:22;4.50;99.90
61201;DHT22;47065;52.898;6.992;2023-12-14T02:25:47;4.50;99.90
61201;DHT22;47065;52.898;6.992;2023-12-14T02:28:13;4.50;99.90
61201;DHT22;47065;52.898;6.992;2023-12-14T02:30:39;4.50;99.90
61201;DHT22;47065;52.898;6.992;2023-12-14T02:33:04;4.50;99.90
61201;DHT22;47065;52.898;6.992;2023-12-14T02:35:30;4.50;99.90
61201;DHT22;47065;52.898;6.992;2023-12-14T02:37:56;4.50;99.90
61201;DHT22;47065;52.898;6.992;2023-12-14T02:40:21;4.50;99.90
61201;DHT22;47065;52.898;6.992;2023-12-14T02:42:47;4.50;99.90
61201;DHT22;47065;52.898;6.992;2023-12-14T02:45:13;4.50;99.90
61201;DHT22;47065;52.898;6.992;2023-12-14T02:47:38;4.50;99.90
61201;DHT22;47065;52.898;6.992;2023-12-14T02:50:04;4.50;99.90
61201;DHT22;47065;52.898;6.992;2023-12-14T02:52:30;4.50;99.90
61201;DHT22;47065;52.898;6.992;2023-12-14T02:54:56;4.50;99.90
61201;DHT22;47065;52.898;6.992;2023-12-14T02:57:21;4.50;99.90
61201;DHT22;47065;52.898;6.992;2023-12-14T02:59:47;4.50;99.90
61201;DHT22;47065;52.898;6.992;2023-12-14T03:02:12;4.50;99.90
61201;DHT22;47065;52.898;6.992;2023-12-14T03:04:38;4.50;99.90
61201;DHT22;47065;52.898;6.992;2023-12-14T03:07:07;4.50;99.90
61201;DHT22;47065;52.898;6.992;2023-12-14T03:09:33;4.50;99.90
61201;DHT22;47065;52.898;6.992;2023-12-14T03:11:59;4.50;99.90
61201;DHT22;47065;52.898;6.992;2023-12-14T03:14:25;4.50;99.90
61201;DHT22;47065;52.898;6.992;2023-12-14T03:16:51;4.50;99.90
61201;DHT22;47065;52.898;6.992;2023-12-14T03:19:18;4.50;99.90
61201;DHT22;47065;52.898;6.992;2023-12-14T03:21:43;4.50;99.90
61201;DHT22;47065;52.898;6.992;2023-12-14T03:24:09;4.50;99.90
61201;DHT22;47065;52.898;6.992;2023-12-14T03:26:35;4.50;99.90
61201;DHT22;47065;52.898;6.992;2023-12-14T03:29:01;4.50;99.90
61201;DHT22;47065;52.898;6.992;2023-12-14T03:31:26;4.50;99.90
61201;DHT22;47065;52.898;6.992;2023-12-14T03:33:52;4.50;99.90
61201;DHT22;47065;52.898;6.992;2023-12-14T03:36:18;4.50;99.90
61201;DHT22;47065;52.898;6.992;2023-12-14T03:38:43;4.50;99.90
61201;DHT22;47065;52.898;6.992;2023-12-14T03:41:09;4.50;99.90
61201;DHT22;47065;52.898;6.992;2023-12-14T03:43:35;4.50;99.90
61201;DHT22;47065;52.898;6.992;2023-12-14T03:46:00;4.50;99.90
61201;DHT22;47065;52.898;6.992;2023-12-14T03:48:26;4.50;99.90
61201;DHT22;47065;52.898;6.992;2023-12-14T03:50:52;4.50;99.90
61201;DHT22;47065;52.898;6.992;2023-12-14T03:53:17;4.50;99.90
61201;DHT22;47065;52.898;6.992;2023-12-14T03:55:43;4.50;99.90
61201;DHT22;47065;52.898;6.992;2023-12-14T03:58:08;4.50;99.90
61201;DHT22;47065;52.898;6.992;2023-12-14T04:00:34;4.50;99.90
61201;DHT22;47065;52.898;6.992;2023-12-14T04:03:00;4.50;99.90
61201;DHT22;47065;52.898;6.992;2023-12-14T04:05:25;4.50;99.90
61201;DHT22;47065;52.898;6.992;2023-12-14T04:07:51;4.50;99.90
61201;DHT22;47065;52.898;6.992;2023-12-14T04:10:17;4.50;99.90
61201;DHT22;47065;52.898;6.992;2023-12-14T04:12:42;4.50;99.90
61201;DHT22;47065;52.898;6.992;2023-12-14T04:15:09;4.50;99.90
61201;DHT22;47065;52.898;6.992;2023-12-14T04:17:35;4.50;99.90
61201;DHT22;47065;52.898;6.992;2023-12-14T04:20:01;4.50;99.90
61201;DHT22;47065;52.898;6.992;2023-12-14T04:22:29;4.50;99.90
61201;DHT22;47065;52.898;6.992;2023-12-14T04:24:55;4.50;99.90
61201;DHT22;47065;52.898;6.992;2023-12-14T04:27:20;4.50;99.90
61201;DHT22;47065;52.898;6.992;2023-12-14T04:29:46;4.50;99.90
61201;DHT22;47065;52.898;6.992;2023-12-14T04:32:12;4.50;99.90
61201;DHT22;47065;52.898;6.992;2023-12-14T04:34:37;4.50;99.90
61201;DHT22;47065;52.898;6.992;2023-12-14T04:37:03;4.50;99.90
61201;DHT22;47065;52.898;6.992;2023-12-14T04:39:29;4.50;99.90
61201;DHT22;47065;52.898;6.992;2023-12-14T04:41:55;4.50;99.90
61201;DHT22;47065;52.898;6.992;2023-12-14T04:44:21;4.50;99.90
61201;DHT22;47065;52.898;6.992;2023-12-14T04:46:48;4.50;99.90
61201;DHT22;47065;52.898;6.992;2023-12-14T04:49:14;4.50;99.90
61201;DHT22;47065;52.898;6.992;2023-12-14T04:51:39;4.50;99.90
61201;DHT22;47065;52.898;6.992;2023-12-14T04:54:05;4.60;99.90
61201;DHT22;47065;52.898;6.992;2023-12-14T04:56:31;4.50;99.90
61201;DHT22;47065;52.898;6.992;2023-12-14T04:58:56;4.50;99.90
61201;DHT22;47065;52.898;6.992;2023-12-14T05:01:22;4.50;99.90
61201;DHT22;47065;52.898;6.992;2023-12-14T05:03:48;4.50;99.90
61201;DHT22;47065;52.898;6.992;2023-12-14T05:06:13;4.50;99.90
61201;DHT22;47065;52.898;6.992;2023-12-14T05:08:39;4.50;99.90
61201;DHT22;47065;52.898;6.992;2023-12-14T05:11:05;4.50;99.90
61201;DHT22;47065;52.898;6.992;2023-12-14T05:13:31;4.50;99.90
61201;DHT22;47065;52.898;6.992;2023-12-14T05:15:57;4.50;99.90
61201;DHT22;47065;52.898;6.992;2023-12-14T05:18:26;4.50;99.90
61201;DHT22;47065;52.898;6.992;2023-12-14T05:20:52;4.50;99.90
61201;DHT22;47065;52.898;6.992;2023-12-14T05:23:18;4.50;99.90
61201;DHT22;47065;52.898;6.992;2023-12-14T05:25:44;4.50;99.90
61201;DHT22;47065;52.898;6.992;2023-12-14T05:28:10;4.40;99.90
61201;DHT22;47065;52.898;6.992;2023-12-14T05:30:36;4.40;99.90
61201;DHT22;47065;52.898;6.992;2023-12-14T05:33:01;4.50;99.90
61201;DHT22;47065;52.898;6.992;2023-12-14T05:35:27;4.50;99.90
61201;DHT22;47065;52.898;6.992;2023-12-14T05:37:53;4.50;99.90
61201;DHT22;47065;52.898;6.992;2023-12-14T05:40:18;4.50;99.90
61201;DHT22;47065;52.898;6.992;2023-12-14T05:42:44;4.40;99.90
61201;DHT22;47065;52.898;6.992;2023-12-14T05:45:10;4.50;99.90
61201;DHT22;47065;52.898;6.992;2023-12-14T05:47:35;4.50;99.90
61201;DHT22;47065;52.898;6.992;2023-12-14T05:50:01;4.40;99.90
61201;DHT22;47065;52.898;6.992;2023-12-14T05:52:28;4.40;99.90
61201;DHT22;47065;52.898;6.992;2023-12-14T05:54:53;4.40;99.90
61201;DHT22;47065;52.898;6.992;2023-12-14T05:57:19;4.40;99.90
61201;DHT22;47065;52.898;6.992;2023-12-14T05:59:44;4.40;99.90
61201;DHT22;47065;52.898;6.992;2023-12-14T06:02:10;4.40;99.90
61201;DHT22;47065;52.898;6.992;2023-12-14T06:04:35;4.40;99.90
61201;DHT22;47065;52.898;6.992;2023-12-14T06:07:01;4.40;99.90
61201;DHT22;47065;52.898;6.992;2023-12-14T06:09:27;4.40;99.90
61201;DHT22;47065;52.898;6.992;2023-12-14T06:12:00;4.40;99.90
61201;DHT22;47065;52.898;6.992;2023-12-14T06:14:27;4.40;99.90
61201;DHT22;47065;52.898;6.992;2023-12-14T06:16:52;4.40;99.90
61201;DHT22;47065;52.898;6.992;2023-12-14T06:19:18;4.50;99.90
61201;DHT22;47065;52.898;6.992;2023-12-14T06:21:44;4.40;99.90
61201;DHT22;47065;52.898;6.992;2023-12-14T06:24:09;4.50;99.90
61201;DHT22;47065;52.898;6.992;2023-12-14T06:26:35;4.40;99.90
61201;DHT22;47065;52.898;6.992;2023-12-14T06:29:05;4.40;99.90
61201;DHT22;47065;52.898;6.992;2023-12-14T06:31:31;4.50;99.90
61201;DHT22;47065;52.898;6.992;2023-12-14T06:33:56;4.40;99.90
61201;DHT22;47065;52.898;6.992;2023-12-14T06:36:23;4.50;99.90
61201;DHT22;47065;52.898;6.992;2023-12-14T06:38:52;4.40;99.90
61201;DHT22;47065;52.898;6.992;2023-12-14T06:41:21;4.50;99.90
61201;DHT22;47065;52.898;6.992;2023-12-14T06:43:48;4.40;99.90
61201;DHT22;47065;52.898;6.992;2023-12-14T06:46:14;4.50;99.90
61201;DHT22;47065;52.898;6.992;2023-12-14T06:48:40;4.50;99.90
61201;DHT22;47065;52.898;6.992;2023-12-14T06:51:06;4.50;99.90
61201;DHT22;47065;52.898;6.992;2023-12-14T06:53:31;4.50;99.90
61201;DHT22;47065;52.898;6.992;2023-12-14T06:55:57;4.40;99.90
61201;DHT22;47065;52.898;6.992;2023-12-14T06:58:23;4.50;99.90
61201;DHT22;47065;52.898;6.992;2023-12-14T07:00:48;4.50;99.90
61201;DHT22;47065;52.898;6.992;2023-12-14T07:03:14;4.40;99.90
61201;DHT22;47065;52.898;6.992;2023-12-14T07:05:40;4.50;99.90
61201;DHT22;47065;52.898;6.992;2023-12-14T07:08:05;4.40;99.90
61201;DHT22;47065;52.898;6.992;2023-12-14T07:10:31;4.50;99.90
61201;DHT22;47065;52.898;6.992;2023-12-14T07:12:57;4.40;99.90
61201;DHT22;47065;52.898;6.992;2023-12-14T07:15:24;4.40;99.90
61201;DHT22;47065;52.898;6.992;2023-12-14T07:17:50;4.50;99.90
61201;DHT22;47065;52.898;6.992;2023-12-14T07:20:15;4.50;99.90
61201;DHT22;47065;52.898;6.992;2023-12-14T07:22:41;4.40;99.90
61201;DHT22;47065;52.898;6.992;2023-12-14T07:25:07;4.40;99.90
61201;DHT22;47065;52.898;6.992;2023-12-14T07:27:33;4.40;99.90
61201;DHT22;47065;52.898;6.992;2023-12-14T07:29:59;4.40;99.90
61201;DHT22;47065;52.898;6.992;2023-12-14T07:32:25;4.50;99.90
61201;DHT22;47065;52.898;6.992;2023-12-14T07:34:50;4.50;99.90
61201;DHT22;47065;52.898;6.992;2023-12-14T07:37:16;4.40;99.90
61201;DHT22;47065;52.898;6.992;2023-12-14T07:39:41;4.40;99.90
61201;DHT22;47065;52.898;6.992;2023-12-14T07:42:07;4.40;99.90
61201;DHT22;47065;52.898;6.992;2023-12-14T07:44:33;4.50;99.90
61201;DHT22;47065;52.898;6.992;2023-12-14T07:47:00;4.40;99.90
61201;DHT22;47065;52.898;6.992;2023-12-14T07:49:26;4.40;99.90
61201;DHT22;47065;52.898;6.992;2023-12-14T07:51:52;4.50;99.90
61201;DHT22;47065;52.898;6.992;2023-12-14T07:54:17;4.50;99.90
61201;DHT22;47065;52.898;6.992;2023-12-14T07:56:44;4.40;99.90
61201;DHT22;47065;52.898;6.992;2023-12-14T07:59:09;4.50;99.90
61201;DHT22;47065;52.898;6.992;2023-12-14T08:01:35;4.50;99.90
61201;DHT22;47065;52.898;6.992;2023-12-14T08:04:01;4.40;99.90
61201;DHT22;47065;52.898;6.992;2023-12-14T08:06:27;4.50;99.90
61201;DHT22;47065;52.898;6.992;2023-12-14T08:08:53;4.50;99.90
61201;DHT22;47065;52.898;6.992;2023-12-14T08:11:18;4.50;99.90
61201;DHT22;47065;52.898;6.992;2023-12-14T08:13:44;4.50;99.90
61201;DHT22;47065;52.898;6.992;2023-12-14T08:16:09;4.60;99.90
61201;DHT22;47065;52.898;6.992;2023-12-14T08:18:37;4.50;99.90
61201;DHT22;47065;52.898;6.992;2023-12-14T08:21:03;4.50;99.90
61201;DHT22;47065;52.898;6.992;2023-12-14T08:23:29;4.50;99.90
61201;DHT22;47065;52.898;6.992;2023-12-14T08:25:55;4.50;99.90
61201;DHT22;47065;52.898;6.992;2023-12-14T08:28:25;4.50;99.90
61201;DHT22;47065;52.898;6.992;2023-12-14T08:30:53;4.50;99.90
61201;DHT22;47065;52.898;6.992;2023-12-14T08:33:19;4.50;99.90
61201;DHT22;47065;52.898;6.992;2023-12-14T08:35:44;4.40;99.90
61201;DHT22;47065;52.898;6.992;2023-12-14T08:38:10;4.50;99.90
61201;DHT22;47065;52.898;6.992;2023-12-14T08:40:37;4.50;99.90
61201;DHT22;47065;52.898;6.992;2023-12-14T08:43:03;4.50;99.90
61201;DHT22;47065;52.898;6.992;2023-12-14T08:45:29;4.50;99.90
61201;DHT22;47065;52.898;6.992;2023-12-14T08:47:54;4.50;99.90
61201;DHT22;47065;52.898;6.992;2023-12-14T08:50:20;4.60;99.90
61201;DHT22;47065;52.898;6.992;2023-12-14T08:52:46;4.50;99.90
61201;DHT22;47065;52.898;6.992;2023-12-14T08:55:12;4.50;99.90
61201;DHT22;47065;52.898;6.992;2023-12-14T08:57:38;4.60;99.90
61201;DHT22;47065;52.898;6.992;2023-12-14T09:00:05;4.60;99.90
61201;DHT22;47065;52.898;6.992;2023-12-14T09:02:32;4.60;99.90
61201;DHT22;47065;52.898;6.992;2023-12-14T09:04:58;4.60;99.90
61201;DHT22;47065;52.898;6.992;2023-12-14T09:07:24;4.60;99.90
61201;DHT22;47065;52.898;6.992;2023-12-14T09:09:50;4.60;99.90
61201;DHT22;47065;52.898;6.992;2023-12-14T09:12:31;4.50;99.90
61201;DHT22;47065;52.898;6.992;2023-12-14T09:14:57;4.60;99.90
61201;DHT22;47065;52.898;6.992;2023-12-14T09:17:22;4.60;99.90
61201;DHT22;47065;52.898;6.992;2023-12-14T09:19:48;4.60;99.90
61201;DHT22;47065;52.898;6.992;2023-12-14T09:22:14;4.70;99.90
61201;DHT22;47065;52.898;6.992;2023-12-14T09:24:39;4.60;99.90
61201;DHT22;47065;52.898;6.992;2023-12-14T09:27:05;4.60;99.90
61201;DHT22;47065;52.898;6.992;2023-12-14T09:29:30;4.70;99.90
61201;DHT22;47065;52.898;6.992;2023-12-14T09:31:56;4.70;99.90
61201;DHT22;47065;52.898;6.992;2023-12-14T09:34:22;4.70;99.90
61201;DHT22;47065;52.898;6.992;2023-12-14T09:36:47;4.70;99.90
61201;DHT22;47065;52.898;6.992;2023-12-14T09:39:13;4.70;99.90
61201;DHT22;47065;52.898;6.992;2023-12-14T09:41:40;4.70;99.90
61201;DHT22;47065;52.898;6.992;2023-12-14T09:44:06;4.70;99.90
61201;DHT22;47065;52.898;6.992;2023-12-14T09:46:34;4.80;99.90
61201;DHT22;47065;52.898;6.992;2023-12-14T09:49:02;4.80;99.90
61201;DHT22;47065;52.898;6.992;2023-12-14T09:51:30;4.70;99.90
61201;DHT22;47065;52.898;6.992;2023-12-14T09:53:56;4.80;99.90
61201;DHT22;47065;52.898;6.992;2023-12-14T09:56:25;4.80;99.90
61201;DHT22;47065;52.898;6.992;2023-12-14T09:58:51;4.80;99.90
61201;DHT22;47065;52.898;6.992;2023-12-14T10:01:27;4.80;99.90
61201;DHT22;47065;52.898;6.992;2023-12-14T10:04:16;4.80;99.90
61201;DHT22;47065;52.898;6.992;2023-12-14T10:06:43;4.80;99.90
61201;DHT22;47065;52.898;6.992;2023-12-14T10:09:09;4.90;99.90
61201;DHT22;47065;52.898;6.992;2023-12-14T10:11:38;4.90;99.90
61201;DHT22;47065;52.898;6.992;2023-12-14T10:14:20;4.90;99.90
61201;DHT22;47065;52.898;6.992;2023-12-14T10:16:47;4.90;99.90
61201;DHT22;47065;52.898;6.992;2023-12-14T10:19:13;4.90;99.90
61201;DHT22;47065;52.898;6.992;2023-12-14T10:21:38;4.90;99.90
61201;DHT22;47065;52.898;6.992;2023-12-14T10:24:05;4.90;99.90
61201;DHT22;47065;52.898;6.992;2023-12-14T10:26:31;4.90;99.90
61201;DHT22;47065;52.898;6.992;2023-12-14T10:28:57;4.90;99.90
61201;DHT22;47065;52.898;6.992;2023-12-14T10:31:24;4.90;99.90
61201;DHT22;47065;52.898;6.992;2023-12-14T10:33:51;4.90;99.90
61201;DHT22;47065;52.898;6.992;2023-12-14T10:36:18;4.90;99.90
61201;DHT22;47065;52.898;6.992;2023-12-14T10:38:48;4.90;99.90
61201;DHT22;47065;52.898;6.992;2023-12-14T10:41:14;4.90;99.90
61201;DHT22;47065;52.898;6.992;2023-12-14T10:43:41;4.90;99.90
61201;DHT22;47065;52.898;6.992;2023-12-14T10:46:07;4.90;99.90
61201;DHT22;47065;52.898;6.992;2023-12-14T10:48:35;5.00;99.90
61201;DHT22;47065;52.898;6.992;2023-12-14T10:51:08;5.00;99.90
61201;DHT22;47065;52.898;6.992;2023-12-14T10:53:35;5.00;99.90
61201;DHT22;47065;52.898;6.992;2023-12-14T10:56:07;5.00;99.90
61201;DHT22;47065;52.898;6.992;2023-12-14T10:58:54;5.10;99.90
61201;DHT22;47065;52.898;6.992;2023-12-14T11:01:22;5.10;99.90
61201;DHT22;47065;52.898;6.992;2023-12-14T11:03:50;5.10;99.90
61201;DHT22;47065;52.898;6.992;2023-12-14T11:08:54;5.10;99.90
61201;DHT22;47065;52.898;6.992;2023-12-14T11:11:21;5.10;99.90
61201;DHT22;47065;52.898;6.992;2023-12-14T11:13:52;5.20;99.90
61201;DHT22;47065;52.898;6.992;2023-12-14T11:16:22;5.20;99.90
61201;DHT22;47065;52.898;6.992;2023-12-14T11:18:48;5.20;99.90
61201;DHT22;47065;52.898;6.992;2023-12-14T11:21:20;5.20;99.90
61201;DHT22;47065;52.898;6.992;2023-12-14T11:23:50;5.20;99.90
61201;DHT22;47065;52.898;6.992;2023-12-14T11:26:21;5.20;99.90
61201;DHT22;47065;52.898;6.992;2023-12-14T11:28:50;5.30;99.90
61201;DHT22;47065;52.898;6.992;2023-12-14T11:31:16;5.30;99.90
61201;DHT22;47065;52.898;6.992;2023-12-14T11:33:42;5.30;99.90
61201;DHT22;47065;52.898;6.992;2023-12-14T11:36:11;5.30;99.90
61201;DHT22;47065;52.898;6.992;2023-12-14T11:38:37;5.40;99.90
61201;DHT22;47065;52.898;6.992;2023-12-14T11:41:03;5.30;99.90
61201;DHT22;47065;52.898;6.992;2023-12-14T11:43:29;5.30;99.90
61201;DHT22;47065;52.898;6.992;2023-12-14T11:45:55;5.30;99.90
61201;DHT22;47065;52.898;6.992;2023-12-14T11:48:24;5.40;99.90
61201;DHT22;47065;52.898;6.992;2023-12-14T11:50:49;5.40;99.90
61201;DHT22;47065;52.898;6.992;2023-12-14T11:53:15;5.40;99.90
61201;DHT22;47065;52.898;6.992;2023-12-14T11:55:42;5.40;99.90
61201;DHT22;47065;52.898;6.992;2023-12-14T11:58:09;5.40;99.90
61201;DHT22;47065;52.898;6.992;2023-12-14T12:00:36;5.50;99.90
61201;DHT22;47065;52.898;6.992;2023-12-14T12:03:17;5.50;99.90
61201;DHT22;47065;52.898;6.992;2023-12-14T12:08:13;5.50;99.90
61201;DHT22;47065;52.898;6.992;2023-12-14T12:10:40;5.40;99.90
61201;DHT22;47065;52.898;6.992;2023-12-14T12:13:15;5.50;99.90
61201;DHT22;47065;52.898;6.992;2023-12-14T12:15:41;5.40;99.90
61201;DHT22;47065;52.898;6.992;2023-12-14T12:18:15;5.40;99.90
61201;DHT22;47065;52.898;6.992;2023-12-14T12:20:42;5.50;99.90
61201;DHT22;47065;52.898;6.992;2023-12-14T12:23:08;5.50;99.90
61201;DHT22;47065;52.898;6.992;2023-12-14T12:25:34;5.50;99.90
61201;DHT22;47065;52.898;6.992;2023-12-14T12:28:01;5.50;99.90
61201;DHT22;47065;52.898;6.992;2023-12-14T12:30:27;5.50;99.90
61201;DHT22;47065;52.898;6.992;2023-12-14T12:32:53;5.60;99.90
61201;DHT22;47065;52.898;6.992;2023-12-14T12:35:22;5.60;99.90
61201;DHT22;47065;52.898;6.992;2023-12-14T12:37:48;5.60;99.90
61201;DHT22;47065;52.898;6.992;2023-12-14T12:40:22;5.60;99.90
61201;DHT22;47065;52.898;6.992;2023-12-14T12:42:48;5.50;99.90
61201;DHT22;47065;52.898;6.992;2023-12-14T12:45:15;5.50;99.90
61201;DHT22;47065;52.898;6.992;2023-12-14T12:47:43;5.50;99.90
61201;DHT22;47065;52.898;6.992;2023-12-14T12:50:09;5.50;99.90
61201;DHT22;47065;52.898;6.992;2023-12-14T12:52:35;5.50;99.90
61201;DHT22;47065;52.898;6.992;2023-12-14T12:55:00;5.50;99.90
61201;DHT22;47065;52.898;6.992;2023-12-14T12:57:27;5.50;99.90
61201;DHT22;47065;52.898;6.992;2023-12-14T12:59:52;5.50;99.90
61201;DHT22;47065;52.898;6.992;2023-12-14T13:02:18;5.50;99.90
61201;DHT22;47065;52.898;6.992;2023-12-14T13:04:44;5.50;99.90
61201;DHT22;47065;52.898;6.992;2023-12-14T13:07:10;5.50;99.90
61201;DHT22;47065;52.898;6.992;2023-12-14T13:09:37;5.40;99.90
61201;DHT22;47065;52.898;6.992;2023-12-14T13:12:04;5.50;99.90
61201;DHT22;47065;52.898;6.992;2023-12-14T13:14:30;5.50;99.90
61201;DHT22;47065;52.898;6.992;2023-12-14T13:16:56;5.50;99.90
61201;DHT22;47065;52.898;6.992;2023-12-14T13:19:24;5.50;99.90
61201;DHT22;47065;52.898;6.992;2023-12-14T13:21:51;5.50;99.90
61201;DHT22;47065;52.898;6.992;2023-12-14T13:24:17;5.50;99.90
61201;DHT22;47065;52.898;6.992;2023-12-14T13:26:43;5.60;99.90
61201;DHT22;47065;52.898;6.992;2023-12-14T13:29:08;5.50;99.90
61201;DHT22;47065;52.898;6.992;2023-12-14T13:31:35;5.60;99.90
61201;DHT22;47065;52.898;6.992;2023-12-14T13:34:01;5.50;99.90
61201;DHT22;47065;52.898;6.992;2023-12-14T13:36:27;5.60;99.90
61201;DHT22;47065;52.898;6.992;2023-12-14T13:38:52;5.60;99.90
61201;DHT22;47065;52.898;6.992;2023-12-14T13:41:18;5.60;99.90
61201;DHT22;47065;52.898;6.992;2023-12-14T13:43:43;5.60;99.90
61201;DHT22;47065;52.898;6.992;2023-12-14T13:46:11;5.60;99.90
61201;DHT22;47065;52.898;6.992;2023-12-14T13:48:37;5.60;99.90
61201;DHT22;47065;52.898;6.992;2023-12-14T13:51:02;5.60;99.90
61201;DHT22;47065;52.898;6.992;2023-12-14T13:53:28;5.60;99.90
61201;DHT22;47065;52.898;6.992;2023-12-14T13:55:54;5.60;99.90
61201;DHT22;47065;52.898;6.992;2023-12-14T13:58:20;5.50;99.90
61201;DHT22;47065;52.898;6.992;2023-12-14T14:00:45;5.50;99.90
61201;DHT22;47065;52.898;6.992;2023-12-14T14:03:12;5.50;99.90
61201;DHT22;47065;52.898;6.992;2023-12-14T14:05:38;5.50;99.90
61201;DHT22;47065;52.898;6.992;2023-12-14T14:08:04;5.50;99.90
61201;DHT22;47065;52.898;6.992;2023-12-14T14:10:30;5.50;99.90
61201;DHT22;47065;52.898;6.992;2023-12-14T14:12:55;5.50;99.90
61201;DHT22;47065;52.898;6.992;2023-12-14T14:15:21;5.50;99.90
61201;DHT22;47065;52.898;6.992;2023-12-14T14:17:47;5.50;99.90
61201;DHT22;47065;52.898;6.992;2023-12-14T14:20:17;5.40;99.90
61201;DHT22;47065;52.898;6.992;2023-12-14T14:22:42;5.40;99.90
61201;DHT22;47065;52.898;6.992;2023-12-14T14:25:09;5.50;99.90
61201;DHT22;47065;52.898;6.992;2023-12-14T14:27:35;5.40;99.90
61201;DHT22;47065;52.898;6.992;2023-12-14T14:30:02;5.40;99.90
61201;DHT22;47065;52.898;6.992;2023-12-14T14:32:28;5.40;99.90
61201;DHT22;47065;52.898;6.992;2023-12-14T14:34:57;5.40;99.90
61201;DHT22;47065;52.898;6.992;2023-12-14T14:37:24;5.40;99.90
61201;DHT22;47065;52.898;6.992;2023-12-14T14:39:49;5.40;99.90
61201;DHT22;47065;52.898;6.992;2023-12-14T14:42:15;5.30;99.90
61201;DHT22;47065;52.898;6.992;2023-12-14T14:44:41;5.40;99.90
61201;DHT22;47065;52.898;6.992;2023-12-14T14:47:07;5.40;99.90
61201;DHT22;47065;52.898;6.992;2023-12-14T14:49:33;5.40;99.90
61201;DHT22;47065;52.898;6.992;2023-12-14T14:51:58;5.30;99.90
61201;DHT22;47065;52.898;6.992;2023-12-14T14:54:24;5.30;99.90
61201;DHT22;47065;52.898;6.992;2023-12-14T14:56:50;5.30;99.90
61201;DHT22;47065;52.898;6.992;2023-12-14T14:59:15;5.20;99.90
61201;DHT22;47065;52.898;6.992;2023-12-14T15:01:41;5.30;99.90
61201;DHT22;47065;52.898;6.992;2023-12-14T15:04:07;5.20;99.90
61201;DHT22;47065;52.898;6.992;2023-12-14T15:06:33;5.20;99.90
61201;DHT22;47065;52.898;6.992;2023-12-14T15:08:59;5.20;99.90
61201;DHT22;47065;52.898;6.992;2023-12-14T15:11:25;5.20;99.90
61201;DHT22;47065;52.898;6.992;2023-12-14T15:13:51;5.20;99.90
61201;DHT22;47065;52.898;6.992;2023-12-14T15:16:17;5.20;99.90
61201;DHT22;47065;52.898;6.992;2023-12-14T15:18:44;5.10;99.90
61201;DHT22;47065;52.898;6.992;2023-12-14T15:21:13;5.10;99.90
61201;DHT22;47065;52.898;6.992;2023-12-14T15:23:38;5.10;99.90
61201;DHT22;47065;52.898;6.992;2023-12-14T15:26:05;5.00;99.90
61201;DHT22;47065;52.898;6.992;2023-12-14T15:28:33;5.00;99.90
61201;DHT22;47065;52.898;6.992;2023-12-14T15:30:59;5.00;99.90
61201;DHT22;47065;52.898;6.992;2023-12-14T15:33:24;5.00;99.90
61201;DHT22;47065;52.898;6.992;2023-12-14T15:35:51;4.90;99.90
61201;DHT22;47065;52.898;6.992;2023-12-14T15:38:17;4.90;99.90
61201;DHT22;47065;52.898;6.992;2023-12-14T15:40:42;4.90;99.90
61201;DHT22;47065;52.898;6.992;2023-12-14T15:43:08;4.90;99.90
61201;DHT22;47065;52.898;6.992;2023-12-14T15:45:33;4.80;99.90